createdAt,value
2022-11-13T00:01:54.585Z,9.04
2022-11-13T00:07:19.126Z,9.03
2022-11-13T00:12:43.729Z,9.03
2022-11-13T00:18:08.585Z,9.00
2022-11-13T00:23:36.708Z,9.00
2022-11-13T00:29:03.109Z,9.01
2022-11-13T00:34:46.666Z,8.99
2022-11-13T00:40:12.966Z,8.97
2022-11-13T00:45:37.624Z,8.96
2022-11-13T00:51:02.717Z,8.96
2022-11-13T00:56:28.165Z,8.97
2022-11-13T01:01:52.604Z,8.97
2022-11-13T01:07:17.455Z,8.96
2022-11-13T01:12:42.101Z,8.96
2022-11-13T01:18:07.199Z,8.96
2022-11-13T01:23:31.806Z,8.96
2022-11-13T01:28:57.728Z,8.96
2022-11-13T01:34:22.806Z,8.98
2022-11-13T01:39:47.106Z,9.00
2022-11-13T01:45:47.099Z,8.99
2022-11-13T01:51:16.779Z,8.95
2022-11-13T01:56:42.089Z,8.95
2022-11-13T02:02:06.535Z,8.98
2022-11-13T02:07:30.832Z,8.99
2022-11-13T02:12:55.493Z,8.97
2022-11-13T02:18:22.016Z,8.99
2022-11-13T02:23:50.853Z,9.01
2022-11-13T02:29:15.494Z,9.02
2022-11-13T02:34:40.327Z,9.00
2022-11-13T02:40:05.713Z,9.00
2022-11-13T02:45:30.265Z,9.01
2022-11-13T02:50:54.862Z,9.00
2022-11-13T02:56:20.299Z,8.98
2022-11-13T03:01:45.909Z,8.97
2022-11-13T03:07:11.760Z,8.97
2022-11-13T03:12:36.161Z,8.99
2022-11-13T03:18:04.137Z,8.98
2022-11-13T03:23:29.487Z,8.99
2022-11-13T03:28:53.916Z,8.99
2022-11-13T03:34:18.910Z,9.01
2022-11-13T03:39:43.284Z,9.01
2022-11-13T03:45:08.592Z,9.00
2022-11-13T03:50:33.262Z,8.99
2022-11-13T03:55:57.884Z,9.00
2022-11-13T04:01:22.593Z,9.00
2022-11-13T04:06:46.872Z,8.95
2022-11-13T04:12:11.643Z,8.92
2022-11-13T04:17:36.045Z,8.95
2022-11-13T04:23:00.833Z,8.95
2022-11-13T04:28:26.027Z,8.95
2022-11-13T04:33:50.737Z,8.93
2022-11-13T04:39:15.507Z,8.90
2022-11-13T04:44:40.311Z,8.91
2022-11-13T04:50:05.466Z,8.91
2022-11-13T04:55:30.655Z,8.90
2022-11-13T05:00:54.978Z,8.86
2022-11-13T05:06:20.739Z,8.84
2022-11-13T05:11:45.081Z,8.87
2022-11-13T05:17:12.286Z,8.86
2022-11-13T05:22:37.133Z,8.85
2022-11-13T05:28:01.453Z,8.85
2022-11-13T05:33:28.478Z,8.82
2022-11-13T05:38:52.692Z,8.81
2022-11-13T05:44:17.488Z,8.80
2022-11-13T05:49:42.298Z,8.79
2022-11-13T05:55:08.240Z,8.80
2022-11-13T06:00:33.084Z,8.80
2022-11-13T06:05:57.941Z,8.80
2022-11-13T06:11:25.059Z,8.80
2022-11-13T06:16:49.515Z,8.83
2022-11-13T06:22:14.299Z,8.88
2022-11-13T06:27:38.451Z,8.94
2022-11-13T06:33:02.748Z,9.00
2022-11-13T06:38:29.998Z,9.02
2022-11-13T06:43:58.592Z,9.06
2022-11-13T06:49:27.076Z,9.12
2022-11-13T06:54:51.805Z,9.16
2022-11-13T07:00:18.188Z,9.19
2022-11-13T07:05:42.650Z,9.22
2022-11-13T07:11:08.016Z,9.23
2022-11-13T07:16:50.127Z,9.24
2022-11-13T07:22:18.082Z,9.30
2022-11-13T07:27:47.112Z,9.32
2022-11-13T07:33:11.581Z,9.33
2022-11-13T07:38:36.432Z,9.36
2022-11-13T07:44:02.567Z,9.45
2022-11-13T07:49:28.958Z,9.53
2022-11-13T07:54:53.294Z,9.63
2022-11-13T08:00:19.181Z,9.68
2022-11-13T08:05:44.336Z,9.69
2022-11-13T08:11:10.068Z,9.78
2022-11-13T08:16:34.853Z,9.94
2022-11-13T08:21:59.026Z,10.08
2022-11-13T08:27:24.661Z,10.20
2022-11-13T08:32:50.140Z,10.31
2022-11-13T08:38:14.886Z,10.34
2022-11-13T08:43:39.618Z,10.31
2022-11-13T08:49:04.190Z,10.21
2022-11-13T08:54:28.902Z,10.21
2022-11-13T08:59:53.094Z,10.21
2022-11-13T09:05:18.217Z,10.19
2022-11-13T09:10:42.677Z,10.15
2022-11-13T09:16:07.860Z,10.13
2022-11-13T09:21:32.573Z,10.13
2022-11-13T09:26:57.288Z,10.14
2022-11-13T09:32:21.721Z,10.21
2022-11-13T09:37:46.400Z,10.26
2022-11-13T09:43:20.611Z,10.31
2022-11-13T09:48:50.447Z,10.36
2022-11-13T09:54:16.079Z,10.40
2022-11-13T09:59:47.272Z,10.48
2022-11-13T10:05:21.802Z,10.51
2022-11-13T10:10:55.497Z,10.50
2022-11-13T10:16:33.245Z,10.45
2022-11-13T10:22:31.089Z,10.40
2022-11-13T10:27:54.058Z,10.33
2022-11-13T10:33:21.283Z,10.27
2022-11-13T10:38:53.666Z,10.22
2022-11-13T10:44:30.384Z,10.13
2022-11-13T10:49:56.674Z,10.05
2022-11-13T10:55:27.592Z,10.03
2022-11-13T11:00:52.730Z,10.07
2022-11-13T11:06:17.118Z,10.11
2022-11-13T11:12:00.374Z,10.11
2022-11-13T11:17:29.872Z,10.21
2022-11-13T11:23:01.049Z,10.30
2022-11-13T11:28:32.755Z,10.31
2022-11-13T11:34:04.468Z,10.35
2022-11-13T11:39:40.868Z,10.39
2022-11-13T11:45:15.697Z,10.40
2022-11-13T11:50:48.071Z,10.39
2022-11-13T11:56:23.530Z,10.37
2022-11-13T12:02:12.634Z,10.41
2022-11-13T12:07:47.112Z,10.47
2022-11-13T12:13:29.234Z,10.52
2022-11-13T12:19:00.956Z,10.55
2022-11-13T12:24:59.687Z,10.58
2022-11-13T12:30:34.935Z,10.57
2022-11-13T12:36:00.154Z,10.56
2022-11-13T12:41:33.112Z,10.55
2022-11-13T12:47:01.009Z,10.59
2022-11-13T12:52:25.678Z,10.60
2022-11-13T12:57:50.428Z,10.60
2022-11-13T13:03:37.444Z,10.55
2022-11-13T13:09:25.148Z,10.48
2022-11-13T13:15:09.696Z,10.40
2022-11-13T13:20:37.585Z,10.37
2022-11-13T13:26:07.233Z,10.29
2022-11-13T13:31:42.280Z,10.23
2022-11-13T13:37:18.148Z,10.20
2022-11-13T13:42:58.513Z,10.17
2022-11-13T13:48:29.159Z,10.15
2022-11-13T13:53:56.160Z,10.14
2022-11-13T13:59:26.196Z,10.11
2022-11-13T14:04:52.710Z,10.06
2022-11-13T14:10:20.885Z,10.06
2022-11-13T14:15:45.337Z,10.02
2022-11-13T14:21:16.716Z,10.02
2022-11-13T14:26:41.547Z,10.02
2022-11-13T14:32:12.530Z,9.97
2022-11-13T14:37:36.629Z,9.89
2022-11-13T14:43:05.338Z,9.75
2022-11-13T14:48:31.888Z,9.68
2022-11-13T14:54:03.901Z,9.64
2022-11-13T14:59:32.777Z,9.69
2022-11-13T15:04:57.298Z,9.72
2022-11-13T15:10:24.562Z,9.70
2022-11-13T15:15:48.999Z,9.69
2022-11-13T15:21:13.653Z,9.74
2022-11-13T15:26:38.653Z,9.75
2022-11-13T15:32:03.382Z,9.72
2022-11-13T15:37:28.213Z,9.65
2022-11-13T15:42:52.763Z,9.61
2022-11-13T15:48:17.340Z,9.60
2022-11-13T15:53:42.359Z,9.62
2022-11-13T15:59:06.944Z,9.61
2022-11-13T16:04:50.767Z,9.57
2022-11-13T16:10:17.236Z,9.56
2022-11-13T16:15:42.160Z,9.61
2022-11-13T16:21:08.751Z,9.60
2022-11-13T16:26:33.701Z,9.55
2022-11-13T16:31:59.324Z,9.50
2022-11-13T16:37:25.601Z,9.49
2022-11-13T16:42:51.319Z,9.51
2022-11-13T16:48:16.694Z,9.52
2022-11-13T16:53:41.756Z,9.51
2022-11-13T16:59:06.114Z,9.50
2022-11-13T17:04:31.073Z,9.46
2022-11-13T17:10:24.032Z,9.48
2022-11-13T17:15:40.318Z,9.41
2022-11-13T17:21:06.536Z,9.37
2022-11-13T17:26:31.760Z,9.33
2022-11-13T17:31:56.279Z,9.35
2022-11-13T17:37:25.078Z,9.36
2022-11-13T17:42:49.989Z,9.36
2022-11-13T17:48:14.601Z,9.32
2022-11-13T17:53:39.561Z,9.34
2022-11-13T17:59:04.053Z,9.36
2022-11-13T18:04:28.466Z,9.37
2022-11-13T18:09:53.058Z,9.31
2022-11-13T18:15:18.649Z,9.29
2022-11-13T18:20:43.733Z,9.29
2022-11-13T18:26:13.536Z,9.26
2022-11-13T18:31:37.891Z,9.22
2022-11-13T18:37:02.491Z,9.19
2022-11-13T18:42:27.404Z,9.19
2022-11-13T18:47:52.234Z,9.20
2022-11-13T18:53:16.701Z,9.16
2022-11-13T18:58:43.777Z,9.12
2022-11-13T19:04:25.248Z,9.11
2022-11-13T19:09:51.061Z,9.13
2022-11-13T19:15:15.961Z,9.13
2022-11-13T19:20:40.669Z,9.11
2022-11-13T19:26:07.166Z,9.09
2022-11-13T19:31:31.749Z,9.10
2022-11-13T19:36:56.371Z,9.14
2022-11-13T19:42:20.750Z,9.12
2022-11-13T19:47:45.933Z,9.08
2022-11-13T19:53:10.520Z,9.09
2022-11-13T19:58:35.719Z,9.10
2022-11-13T20:04:02.302Z,9.12
2022-11-13T20:09:28.617Z,9.07
2022-11-13T20:14:53.176Z,9.04
2022-11-13T20:20:18.923Z,9.06
2022-11-13T20:25:50.514Z,9.07
2022-11-13T20:31:19.948Z,9.02
2022-11-13T20:36:46.186Z,8.97
2022-11-13T20:42:10.767Z,8.97
2022-11-13T20:47:36.361Z,8.98
2022-11-13T20:53:01.128Z,8.92
2022-11-13T20:58:25.568Z,8.91
2022-11-13T21:03:50.557Z,8.91
2022-11-13T21:09:15.093Z,8.92
2022-11-13T21:14:40.039Z,8.91
2022-11-13T21:20:05.506Z,8.84
2022-11-13T21:25:30.711Z,8.79
2022-11-13T21:30:55.520Z,8.71
2022-11-13T21:36:22.683Z,8.66
2022-11-13T21:41:47.394Z,8.57
2022-11-13T21:47:12.584Z,8.54
2022-11-13T21:52:37.182Z,8.54
2022-11-13T21:58:01.721Z,8.51
2022-11-13T22:03:26.945Z,8.44
2022-11-13T22:08:58.133Z,8.40
2022-11-13T22:14:22.978Z,8.42
2022-11-13T22:19:47.484Z,8.41
2022-11-13T22:25:12.247Z,8.39
2022-11-13T22:30:37.125Z,8.37
2022-11-13T22:36:06.646Z,8.39
2022-11-13T22:41:32.943Z,8.42
2022-11-13T22:46:57.208Z,8.41
2022-11-13T22:52:22.360Z,8.39
2022-11-13T22:57:46.962Z,8.38
2022-11-13T23:03:11.611Z,8.38
2022-11-13T23:08:39.018Z,8.39
2022-11-13T23:14:05.600Z,8.39
2022-11-13T23:19:30.141Z,8.42
2022-11-13T23:24:56.376Z,8.46
2022-11-13T23:30:21.869Z,8.49
2022-11-13T23:35:46.296Z,8.44
2022-11-13T23:41:11.565Z,8.39
2022-11-13T23:46:36.669Z,8.43
2022-11-13T23:52:01.151Z,8.41
2022-11-13T23:57:25.934Z,8.36
